Portada
METAR-TAF:

METAR-TAF

Aeroports :

Aeroport Internacional de Fujairah

Fujairah, Emirats Àrabs Units

latitud: 25-06N, longitud: 056-20E, altitud: 28 m

Observació

L'informe es va fer fa 36 minuts, a les 23:00 UTC
Vent 4 kt del Est/Nord-Est, variant entre Nord-Est i Est/Sud-Est
Temperatura 33°C
Humitat 80%
Pressió 996 hPa
Visibilitat: 7000 m

METAR: OMFJ 102300Z 07004KT 040V110 7000 NSC 33/29 Q0996 A2941

Hora: 03:36 (23:36 UTC)

Pronòstic

L'informe es va fer fa 6 hores i 36 minuts, a les 17:00 UTC
Pronòstic vàlid del 10 a les 18 UTC al 11 a les 24 UTC
Vent 5 kt del Sud/Sud-Est
Visibilitat: 7000 m
Probabilitat 30%
l' 10 a les 23 UTC al 11 a les 02 UTC
Vent 7 kt del Oest/Nord-Oest
Evolucionant progressivament
l' 11 a les 06 UTC al 11 a les 08 UTC
Vent 7 kt del Est
Evolucionant progressivament
l' 11 a les 15 UTC al 11 a les 17 UTC
Vent 5 kt del Sud

TAF: OMFJ 101700Z 1018/1124 15005KT 7000 NSC PROB30 1023/1102 29007KT BECMG 1106/1108 10007KT BECMG 1115/1117 17005KT

Observacions i pronòstics meteorològics de més de 4000 aeroports (METAR i TAF).

Les estacions disponibles són els punts grocs i vermells al mapa.

Posi el ratolí al punt desitjat per veure el nom de l'estació.

Feu clic per veure les observacions i els pronòstics meteorològics.

Per canviar el mapa: feu clic els botons verds amb una creu de color negre per apropar; al botó verd amb un guió per allunyar la imatge; o en les fletxes verdes per a mapes adjacents.


METAR-TAF: